Aviation Digital Data Service (ADDS)

Output produced by METARs form (2200 UTC 31 March 2015)
found at http://www.aviationweather.gov/adds/metars/
 
KJFK 312136Z 3122/0124 02010KT 3SM -RA BR BKN010 OVC025 
     FM312300 01012G18KT 3SM -RASN BR BKN008 OVC015 
     TEMPO 3123/0101 2SM -SN BKN005 
     FM010300 34015G23KT P6SM SCT015 BKN050 
     FM010700 33015KT P6SM SCT250 
     FM011400 32012KT P6SM BKN200 
     FM011900 30012KT P6SM BKN100